sensor_id;sensor_type;location;lat;lon;timestamp;pressure;altitude;pressure_sealevel;temperature;humidity
72409;BME280;60402;48.082;11.628;2023-03-21T00:00:59;95574.56;;;7.17;100.00
72409;BME280;60402;48.082;11.628;2023-03-21T00:03:48;95553.69;;;7.18;100.00
72409;BME280;60402;48.082;11.628;2023-03-21T00:06:35;95570.56;;;7.15;100.00
72409;BME280;60402;48.082;11.628;2023-03-21T00:09:22;95552.63;;;7.05;100.00
72409;BME280;60402;48.082;11.628;2023-03-21T00:12:08;95543.00;;;7.06;100.00
72409;BME280;60402;48.082;11.628;2023-03-21T00:14:55;95536.59;;;7.06;100.00
72409;BME280;60402;48.082;11.628;2023-03-21T00:17:48;95536.53;;;7.09;100.00
72409;BME280;60402;48.082;11.628;2023-03-21T00:20:35;95524.53;;;7.05;100.00
72409;BME280;60402;48.082;11.628;2023-03-21T00:23:22;95542.44;;;7.18;100.00
72409;BME280;60402;48.082;11.628;2023-03-21T00:26:08;95519.66;;;7.09;100.00
72409;BME280;60402;48.082;11.628;2023-03-21T00:28:54;95526.44;;;7.15;100.00
72409;BME280;60402;48.082;11.628;2023-03-21T00:31:40;95537.97;;;7.25;100.00
72409;BME280;60402;48.082;11.628;2023-03-21T00:34:26;95517.19;;;7.15;100.00
72409;BME280;60402;48.082;11.628;2023-03-21T00:37:12;95536.22;;;7.34;100.00
72409;BME280;60402;48.082;11.628;2023-03-21T00:40:01;95498.78;;;7.10;100.00
72409;BME280;60402;48.082;11.628;2023-03-21T00:42:47;95509.97;;;7.14;100.00
72409;BME280;60402;48.082;11.628;2023-03-21T00:45:32;95505.16;;;7.14;100.00
72409;BME280;60402;48.082;11.628;2023-03-21T00:48:18;95520.72;;;7.23;100.00
72409;BME280;60402;48.082;11.628;2023-03-21T00:51:11;95520.28;;;7.24;100.00
72409;BME280;60402;48.082;11.628;2023-03-21T00:53:59;95502.78;;;7.13;100.00
72409;BME280;60402;48.082;11.628;2023-03-21T00:56:45;95504.75;;;7.16;100.00
72409;BME280;60402;48.082;11.628;2023-03-21T00:59:31;95503.47;;;7.21;100.00
72409;BME280;60402;48.082;11.628;2023-03-21T01:02:17;95481.19;;;7.06;100.00
72409;BME280;60402;48.082;11.628;2023-03-21T01:05:08;95508.13;;;7.34;100.00
72409;BME280;60402;48.082;11.628;2023-03-21T01:07:55;95494.53;;;7.29;100.00
72409;BME280;60402;48.082;11.628;2023-03-21T01:10:44;95472.69;;;7.10;100.00
72409;BME280;60402;48.082;11.628;2023-03-21T01:13:30;95501.66;;;7.34;100.00
72409;BME280;60402;48.082;11.628;2023-03-21T01:16:16;95497.34;;;7.29;100.00
72409;BME280;60402;48.082;11.628;2023-03-21T01:19:03;95502.56;;;7.27;100.00
72409;BME280;60402;48.082;11.628;2023-03-21T01:21:49;95483.38;;;7.22;100.00
72409;BME280;60402;48.082;11.628;2023-03-21T01:24:35;95475.91;;;7.12;100.00
72409;BME280;60402;48.082;11.628;2023-03-21T01:27:20;95474.19;;;7.18;100.00
72409;BME280;60402;48.082;11.628;2023-03-21T01:30:06;95494.94;;;7.28;100.00
72409;BME280;60402;48.082;11.628;2023-03-21T01:32:52;95448.31;;;7.03;100.00
72409;BME280;60402;48.082;11.628;2023-03-21T01:35:38;95469.84;;;7.13;100.00
72409;BME280;60402;48.082;11.628;2023-03-21T01:38:24;95460.66;;;7.09;100.00
72409;BME280;60402;48.082;11.628;2023-03-21T01:41:22;95477.78;;;7.18;100.00
72409;BME280;60402;48.082;11.628;2023-03-21T01:44:14;95482.94;;;7.24;100.00
72409;BME280;60402;48.082;11.628;2023-03-21T01:46:59;95468.63;;;7.14;100.00
72409;BME280;60402;48.082;11.628;2023-03-21T01:49:48;95479.25;;;7.30;100.00
72409;BME280;60402;48.082;11.628;2023-03-21T01:52:37;95454.09;;;7.20;100.00
72409;BME280;60402;48.082;11.628;2023-03-21T01:55:23;95439.72;;;7.14;100.00
72409;BME280;60402;48.082;11.628;2023-03-21T01:58:10;95457.16;;;7.29;100.00
72409;BME280;60402;48.082;11.628;2023-03-21T02:00:57;95442.00;;;7.23;100.00
72409;BME280;60402;48.082;11.628;2023-03-21T02:03:45;95439.63;;;7.21;100.00
72409;BME280;60402;48.082;11.628;2023-03-21T02:07:02;95461.66;;;7.53;100.00
72409;BME280;60402;48.082;11.628;2023-03-21T02:09:50;95427.00;;;7.33;100.00
72409;BME280;60402;48.082;11.628;2023-03-21T02:12:36;95437.28;;;7.43;100.00
72409;BME280;60402;48.082;11.628;2023-03-21T02:15:23;95449.66;;;7.49;100.00
72409;BME280;60402;48.082;11.628;2023-03-21T02:18:29;95454.53;;;7.72;100.00
72409;BME280;60402;48.082;11.628;2023-03-21T02:27:43;95451.56;;;7.56;100.00
72409;BME280;60402;48.082;11.628;2023-03-21T02:43:22;95469.66;;;7.55;100.00
72409;BME280;60402;48.082;11.628;2023-03-21T02:46:12;95444.66;;;7.33;100.00
72409;BME280;60402;48.082;11.628;2023-03-21T02:49:10;95440.78;;;7.24;100.00
72409;BME280;60402;48.082;11.628;2023-03-21T02:51:58;95462.69;;;7.36;100.00
72409;BME280;60402;48.082;11.628;2023-03-21T02:54:45;95464.72;;;7.35;100.00
72409;BME280;60402;48.082;11.628;2023-03-21T02:57:33;95452.38;;;7.29;100.00
72409;BME280;60402;48.082;11.628;2023-03-21T03:00:21;95466.31;;;7.36;100.00
72409;BME280;60402;48.082;11.628;2023-03-21T03:03:07;95462.78;;;7.29;100.00
72409;BME280;60402;48.082;11.628;2023-03-21T03:05:56;95461.16;;;7.31;100.00
72409;BME280;60402;48.082;11.628;2023-03-21T03:08:59;95457.16;;;7.29;100.00
72409;BME280;60402;48.082;11.628;2023-03-21T03:11:54;95445.66;;;7.20;100.00
72409;BME280;60402;48.082;11.628;2023-03-21T03:18:03;95443.31;;;7.14;100.00
72409;BME280;60402;48.082;11.628;2023-03-21T03:26:56;95455.34;;;7.15;100.00
72409;BME280;60402;48.082;11.628;2023-03-21T03:29:45;95458.91;;;7.19;100.00
72409;BME280;60402;48.082;11.628;2023-03-21T03:32:45;95443.00;;;7.09;100.00
72409;BME280;60402;48.082;11.628;2023-03-21T03:35:33;95434.69;;;7.02;100.00
72409;BME280;60402;48.082;11.628;2023-03-21T03:38:20;95446.56;;;7.13;100.00
72409;BME280;60402;48.082;11.628;2023-03-21T03:41:15;95427.25;;;6.88;100.00
72409;BME280;60402;48.082;11.628;2023-03-21T03:44:03;95432.41;;;6.93;100.00
72409;BME280;60402;48.082;11.628;2023-03-21T03:47:05;95449.09;;;7.04;100.00
72409;BME280;60402;48.082;11.628;2023-03-21T03:50:12;95447.56;;;6.99;100.00
72409;BME280;60402;48.082;11.628;2023-03-21T03:53:16;95424.81;;;6.90;100.00
72409;BME280;60402;48.082;11.628;2023-03-21T03:56:06;95458.00;;;6.99;100.00
72409;BME280;60402;48.082;11.628;2023-03-21T03:58:55;95444.66;;;7.06;100.00
72409;BME280;60402;48.082;11.628;2023-03-21T04:01:41;95429.47;;;7.00;100.00
72409;BME280;60402;48.082;11.628;2023-03-21T04:04:27;95448.44;;;7.23;100.00
72409;BME280;60402;48.082;11.628;2023-03-21T04:07:13;95453.28;;;7.19;100.00
72409;BME280;60402;48.082;11.628;2023-03-21T04:09:59;95433.78;;;7.08;100.00
72409;BME280;60402;48.082;11.628;2023-03-21T04:12:45;95446.56;;;7.13;100.00
72409;BME280;60402;48.082;11.628;2023-03-21T04:15:30;95432.16;;;7.11;100.00
72409;BME280;60402;48.082;11.628;2023-03-21T04:18:16;95435.25;;;7.20;100.00
72409;BME280;60402;48.082;11.628;2023-03-21T04:21:06;95430.50;;;7.13;100.00
72409;BME280;60402;48.082;11.628;2023-03-21T04:23:52;95438.63;;;7.08;100.00
72409;BME280;60402;48.082;11.628;2023-03-21T04:26:39;95419.78;;;7.05;100.00
72409;BME280;60402;48.082;11.628;2023-03-21T04:29:25;95421.44;;;7.02;100.00
72409;BME280;60402;48.082;11.628;2023-03-21T04:32:14;95424.59;;;7.04;100.00
72409;BME280;60402;48.082;11.628;2023-03-21T04:35:05;95445.34;;;7.14;100.00
72409;BME280;60402;48.082;11.628;2023-03-21T04:37:51;95427.84;;;7.03;100.00
72409;BME280;60402;48.082;11.628;2023-03-21T04:40:37;95410.75;;;6.90;100.00
72409;BME280;60402;48.082;11.628;2023-03-21T04:43:23;95423.81;;;7.04;100.00
72409;BME280;60402;48.082;11.628;2023-03-21T04:46:09;95406.25;;;6.96;100.00
72409;BME280;60402;48.082;11.628;2023-03-21T04:48:55;95438.50;;;7.15;100.00
72409;BME280;60402;48.082;11.628;2023-03-21T04:51:40;95434.09;;;7.14;100.00
72409;BME280;60402;48.082;11.628;2023-03-21T04:54:28;95430.22;;;7.04;100.00
72409;BME280;60402;48.082;11.628;2023-03-21T04:57:14;95423.47;;;7.02;100.00
72409;BME280;60402;48.082;11.628;2023-03-21T05:00:00;95407.94;;;6.90;100.00
72409;BME280;60402;48.082;11.628;2023-03-21T05:02:45;95419.38;;;7.06;100.00
72409;BME280;60402;48.082;11.628;2023-03-21T05:05:32;95412.53;;;7.07;100.00
72409;BME280;60402;48.082;11.628;2023-03-21T05:08:18;95436.50;;;7.15;100.00
72409;BME280;60402;48.082;11.628;2023-03-21T05:11:04;95426.59;;;7.07;100.00
72409;BME280;60402;48.082;11.628;2023-03-21T05:13:49;95426.16;;;7.09;100.00
72409;BME280;60402;48.082;11.628;2023-03-21T05:16:35;95429.75;;;7.09;100.00
72409;BME280;60402;48.082;11.628;2023-03-21T05:19:26;95417.03;;;7.01;100.00
72409;BME280;60402;48.082;11.628;2023-03-21T05:22:24;95436.16;;;7.10;100.00
72409;BME280;60402;48.082;11.628;2023-03-21T05:25:12;95437.88;;;7.04;100.00
72409;BME280;60402;48.082;11.628;2023-03-21T05:27:58;95431.41;;;7.07;100.00
72409;BME280;60402;48.082;11.628;2023-03-21T05:30:46;95418.09;;;7.11;100.00
72409;BME280;60402;48.082;11.628;2023-03-21T05:33:32;95422.59;;;7.05;100.00
72409;BME280;60402;48.082;11.628;2023-03-21T05:36:17;95401.91;;;6.91;100.00
72409;BME280;60402;48.082;11.628;2023-03-21T05:39:03;95423.72;;;7.11;100.00
72409;BME280;60402;48.082;11.628;2023-03-21T05:41:49;95430.88;;;7.15;100.00
72409;BME280;60402;48.082;11.628;2023-03-21T05:44:35;95417.75;;;7.05;100.00
72409;BME280;60402;48.082;11.628;2023-03-21T05:47:21;95422.53;;;7.08;100.00
72409;BME280;60402;48.082;11.628;2023-03-21T05:50:08;95440.44;;;7.22;100.00
72409;BME280;60402;48.082;11.628;2023-03-21T05:52:54;95414.16;;;7.05;100.00
72409;BME280;60402;48.082;11.628;2023-03-21T05:55:40;95420.06;;;7.14;100.00
72409;BME280;60402;48.082;11.628;2023-03-21T05:58:25;95439.81;;;7.34;100.00
72409;BME280;60402;48.082;11.628;2023-03-21T06:01:11;95451.78;;;7.41;100.00
72409;BME280;60402;48.082;11.628;2023-03-21T06:03:57;95445.03;;;7.35;100.00
72409;BME280;60402;48.082;11.628;2023-03-21T06:06:42;95427.91;;;7.26;100.00
72409;BME280;60402;48.082;11.628;2023-03-21T06:09:28;95418.56;;;7.33;100.00
72409;BME280;60402;48.082;11.628;2023-03-21T06:12:14;95440.97;;;7.40;100.00
72409;BME280;60402;48.082;11.628;2023-03-21T06:15:00;95420.53;;;7.36;100.00
72409;BME280;60402;48.082;11.628;2023-03-21T06:17:46;95437.53;;;7.52;100.00
72409;BME280;60402;48.082;11.628;2023-03-21T06:20:32;95433.88;;;7.55;100.00
72409;BME280;60402;48.082;11.628;2023-03-21T06:23:17;95451.13;;;7.81;100.00
72409;BME280;60402;48.082;11.628;2023-03-21T06:26:03;95441.56;;;7.78;100.00
72409;BME280;60402;48.082;11.628;2023-03-21T06:28:49;95437.91;;;7.81;100.00
72409;BME280;60402;48.082;11.628;2023-03-21T06:31:35;95385.72;;;7.53;100.00
72409;BME280;60402;48.082;11.628;2023-03-21T06:34:21;95452.63;;;8.12;100.00
72409;BME280;60402;48.082;11.628;2023-03-21T06:37:07;95469.97;;;8.31;100.00
72409;BME280;60402;48.082;11.628;2023-03-21T06:39:52;95461.84;;;8.36;100.00
72409;BME280;60402;48.082;11.628;2023-03-21T06:42:38;95466.19;;;8.41;100.00
72409;BME280;60402;48.082;11.628;2023-03-21T06:45:24;95455.59;;;8.49;100.00
72409;BME280;60402;48.082;11.628;2023-03-21T06:48:10;95447.50;;;8.51;99.32
72409;BME280;60402;48.082;11.628;2023-03-21T06:50:56;95425.78;;;8.51;98.65
72409;BME280;60402;48.082;11.628;2023-03-21T06:53:42;95451.94;;;8.72;98.42
72409;BME280;60402;48.082;11.628;2023-03-21T06:56:28;95442.25;;;8.73;98.06
72409;BME280;60402;48.082;11.628;2023-03-21T06:59:14;95451.28;;;8.84;98.47
72409;BME280;60402;48.082;11.628;2023-03-21T07:02:00;95450.69;;;8.92;97.36
72409;BME280;60402;48.082;11.628;2023-03-21T07:04:46;95453.28;;;9.03;97.13
72409;BME280;60402;48.082;11.628;2023-03-21T07:07:32;95464.41;;;9.10;96.62
72409;BME280;60402;48.082;11.628;2023-03-21T07:10:18;95469.84;;;9.01;95.77
72409;BME280;60402;48.082;11.628;2023-03-21T07:13:04;95455.81;;;8.98;97.35
72409;BME280;60402;48.082;11.628;2023-03-21T07:15:51;95457.94;;;9.30;95.48
72409;BME280;60402;48.082;11.628;2023-03-21T07:18:37;95458.53;;;9.21;95.16
72409;BME280;60402;48.082;11.628;2023-03-21T07:21:22;95447.06;;;9.12;95.92
72409;BME280;60402;48.082;11.628;2023-03-21T07:24:08;95472.44;;;9.48;94.67
72409;BME280;60402;48.082;11.628;2023-03-21T07:26:53;95463.28;;;9.44;93.60
72409;BME280;60402;48.082;11.628;2023-03-21T07:29:40;95442.38;;;9.05;95.24
72409;BME280;60402;48.082;11.628;2023-03-21T07:32:26;95460.63;;;9.17;95.86
72409;BME280;60402;48.082;11.628;2023-03-21T07:35:15;95451.59;;;9.26;94.84
72409;BME280;60402;48.082;11.628;2023-03-21T07:38:02;95476.19;;;9.61;93.38
72409;BME280;60402;48.082;11.628;2023-03-21T07:40:49;95472.44;;;9.48;93.97
72409;BME280;60402;48.082;11.628;2023-03-21T07:43:34;95455.06;;;9.33;93.56
72409;BME280;60402;48.082;11.628;2023-03-21T07:46:20;95466.56;;;9.59;93.11
72409;BME280;60402;48.082;11.628;2023-03-21T07:49:06;95477.94;;;9.71;92.94
72409;BME280;60402;48.082;11.628;2023-03-21T07:51:53;95470.16;;;9.59;92.98
72409;BME280;60402;48.082;11.628;2023-03-21T07:54:38;95454.78;;;9.80;91.62
72409;BME280;60402;48.082;11.628;2023-03-21T07:57:24;95474.59;;;9.77;91.76
72409;BME280;60402;48.082;11.628;2023-03-21T08:00:11;95477.69;;;9.82;91.38
72409;BME280;60402;48.082;11.628;2023-03-21T08:02:57;95449.59;;;9.79;91.06
72409;BME280;60402;48.082;11.628;2023-03-21T08:05:43;95467.47;;;10.05;89.33
72409;BME280;60402;48.082;11.628;2023-03-21T08:08:29;95465.97;;;10.00;89.03
72409;BME280;60402;48.082;11.628;2023-03-21T08:11:15;95473.47;;;10.07;89.18
72409;BME280;60402;48.082;11.628;2023-03-21T08:14:02;95475.75;;;9.95;89.43
72409;BME280;60402;48.082;11.628;2023-03-21T08:16:48;95458.56;;;10.06;88.51
72409;BME280;60402;48.082;11.628;2023-03-21T08:19:34;95477.81;;;10.28;87.87
72409;BME280;60402;48.082;11.628;2023-03-21T08:22:20;95476.94;;;10.31;87.33
72409;BME280;60402;48.082;11.628;2023-03-21T08:25:07;95478.28;;;10.26;88.60
72409;BME280;60402;48.082;11.628;2023-03-21T08:27:52;95468.25;;;10.05;87.57
72409;BME280;60402;48.082;11.628;2023-03-21T08:30:38;95448.03;;;10.07;87.67
72409;BME280;60402;48.082;11.628;2023-03-21T08:33:24;95448.50;;;10.05;87.73
72409;BME280;60402;48.082;11.628;2023-03-21T08:36:09;95454.34;;;10.31;87.37
72409;BME280;60402;48.082;11.628;2023-03-21T08:38:55;95472.84;;;10.48;87.32
72409;BME280;60402;48.082;11.628;2023-03-21T08:41:41;95466.31;;;10.35;85.66
72409;BME280;60402;48.082;11.628;2023-03-21T08:44:27;95457.88;;;10.02;86.08
72409;BME280;60402;48.082;11.628;2023-03-21T08:47:12;95451.94;;;10.13;85.19
72409;BME280;60402;48.082;11.628;2023-03-21T08:49:58;95458.13;;;10.24;84.18
72409;BME280;60402;48.082;11.628;2023-03-21T08:52:44;95449.72;;;9.88;83.44
72409;BME280;60402;48.082;11.628;2023-03-21T08:55:30;95456.81;;;10.12;82.38
72409;BME280;60402;48.082;11.628;2023-03-21T08:58:17;95466.00;;;10.62;81.43
72409;BME280;60402;48.082;11.628;2023-03-21T09:01:04;95448.09;;;10.68;82.06
72409;BME280;60402;48.082;11.628;2023-03-21T09:03:51;95466.78;;;10.91;82.03
72409;BME280;60402;48.082;11.628;2023-03-21T09:06:38;95446.19;;;10.78;81.52
72409;BME280;60402;48.082;11.628;2023-03-21T09:09:25;95462.88;;;10.72;80.21
72409;BME280;60402;48.082;11.628;2023-03-21T09:12:12;95440.69;;;10.87;81.62
72409;BME280;60402;48.082;11.628;2023-03-21T09:14:58;95469.53;;;11.37;81.54
72409;BME280;60402;48.082;11.628;2023-03-21T09:17:44;95439.22;;;11.50;81.42
72409;BME280;60402;48.082;11.628;2023-03-21T09:20:33;95434.78;;;11.36;81.46
72409;BME280;60402;48.082;11.628;2023-03-21T09:23:22;95421.69;;;10.88;79.62
72409;BME280;60402;48.082;11.628;2023-03-21T09:26:08;95449.88;;;11.04;80.57
72409;BME280;60402;48.082;11.628;2023-03-21T09:28:54;95451.97;;;11.29;81.48
72409;BME280;60402;48.082;11.628;2023-03-21T09:31:40;95446.00;;;11.52;80.46
72409;BME280;60402;48.082;11.628;2023-03-21T09:34:27;95426.41;;;11.33;78.76
72409;BME280;60402;48.082;11.628;2023-03-21T09:37:13;95427.22;;;11.46;78.99
72409;BME280;60402;48.082;11.628;2023-03-21T09:40:00;95421.19;;;11.31;77.77
72409;BME280;60402;48.082;11.628;2023-03-21T09:43:22;95431.69;;;11.18;76.48
72409;BME280;60402;48.082;11.628;2023-03-21T09:46:22;95427.78;;;11.54;76.42
72409;BME280;60402;48.082;11.628;2023-03-21T09:49:31;95446.19;;;11.33;76.30
72409;BME280;60402;48.082;11.628;2023-03-21T09:52:43;95441.00;;;12.20;74.46
72409;BME280;60402;48.082;11.628;2023-03-21T09:55:34;95442.06;;;11.88;75.29
72409;BME280;60402;48.082;11.628;2023-03-21T09:58:44;95430.50;;;11.70;76.68
72409;BME280;60402;48.082;11.628;2023-03-21T10:01:35;95442.13;;;11.34;77.15
72409;BME280;60402;48.082;11.628;2023-03-21T10:04:26;95435.25;;;11.98;75.58
72409;BME280;60402;48.082;11.628;2023-03-21T10:07:14;95444.66;;;12.08;75.90
72409;BME280;60402;48.082;11.628;2023-03-21T10:10:02;95425.56;;;12.34;75.81
72409;BME280;60402;48.082;11.628;2023-03-21T10:12:51;95443.69;;;12.71;75.29
72409;BME280;60402;48.082;11.628;2023-03-21T10:15:38;95417.34;;;11.76;74.68
72409;BME280;60402;48.082;11.628;2023-03-21T10:18:26;95418.31;;;11.86;74.70
72409;BME280;60402;48.082;11.628;2023-03-21T10:21:23;95409.25;;;12.38;73.21
72409;BME280;60402;48.082;11.628;2023-03-21T10:24:12;95409.22;;;12.73;74.11
72409;BME280;60402;48.082;11.628;2023-03-21T10:26:59;95418.31;;;13.34;72.13
72409;BME280;60402;48.082;11.628;2023-03-21T10:29:45;95406.31;;;13.29;71.61
72409;BME280;60402;48.082;11.628;2023-03-21T10:32:32;95421.03;;;13.37;70.57
72409;BME280;60402;48.082;11.628;2023-03-21T10:35:18;95414.28;;;13.75;71.06
72409;BME280;60402;48.082;11.628;2023-03-21T10:38:05;95414.56;;;13.77;69.54
72409;BME280;60402;48.082;11.628;2023-03-21T10:40:52;95401.56;;;13.98;68.12
72409;BME280;60402;48.082;11.628;2023-03-21T10:43:39;95393.72;;;14.29;60.92
72409;BME280;60402;48.082;11.628;2023-03-21T10:46:26;95391.63;;;13.93;61.91
72409;BME280;60402;48.082;11.628;2023-03-21T10:49:14;95379.34;;;14.15;61.85
72409;BME280;60402;48.082;11.628;2023-03-21T10:52:04;95390.88;;;14.29;61.27
72409;BME280;60402;48.082;11.628;2023-03-21T10:55:07;95395.81;;;14.47;60.70
72409;BME280;60402;48.082;11.628;2023-03-21T10:58:14;95396.50;;;14.61;59.64
72409;BME280;60402;48.082;11.628;2023-03-21T11:01:06;95397.41;;;14.57;59.47
72409;BME280;60402;48.082;11.628;2023-03-21T11:03:56;95392.06;;;14.78;60.75
72409;BME280;60402;48.082;11.628;2023-03-21T11:06:54;95383.66;;;15.20;59.31
72409;BME280;60402;48.082;11.628;2023-03-21T11:09:47;95382.56;;;14.99;59.08
72409;BME280;60402;48.082;11.628;2023-03-21T11:12:37;95395.06;;;14.93;59.35
72409;BME280;60402;48.082;11.628;2023-03-21T11:18:24;95384.75;;;15.74;56.57
72409;BME280;60402;48.082;11.628;2023-03-21T11:21:12;95375.13;;;15.72;55.60
72409;BME280;60402;48.082;11.628;2023-03-21T11:23:58;95347.94;;;15.52;56.73
72409;BME280;60402;48.082;11.628;2023-03-21T11:26:47;95368.72;;;15.44;55.27
72409;BME280;60402;48.082;11.628;2023-03-21T11:29:44;95376.78;;;15.36;56.55
72409;BME280;60402;48.082;11.628;2023-03-21T11:32:35;95372.72;;;15.79;56.94
72409;BME280;60402;48.082;11.628;2023-03-21T11:35:24;95360.06;;;14.10;57.23
72409;BME280;60402;48.082;11.628;2023-03-21T11:38:29;95344.66;;;14.84;57.90
72409;BME280;60402;48.082;11.628;2023-03-21T11:41:22;95355.69;;;15.00;57.01
72409;BME280;60402;48.082;11.628;2023-03-21T11:44:24;95346.72;;;15.44;57.74
72409;BME280;60402;48.082;11.628;2023-03-21T11:47:10;95324.69;;;15.02;56.21
72409;BME280;60402;48.082;11.628;2023-03-21T11:49:56;95338.47;;;14.86;58.03
72409;BME280;60402;48.082;11.628;2023-03-21T11:53:34;95312.72;;;14.34;58.45
72409;BME280;60402;48.082;11.628;2023-03-21T11:56:27;95329.59;;;15.11;57.87
72409;BME280;60402;48.082;11.628;2023-03-21T11:59:18;95328.81;;;15.01;56.80
72409;BME280;60402;48.082;11.628;2023-03-21T12:05:18;95301.28;;;13.70;58.77
72409;BME280;60402;48.082;11.628;2023-03-21T12:08:22;95289.16;;;13.69;58.10
72409;BME280;60402;48.082;11.628;2023-03-21T12:18:08;95271.66;;;13.89;57.40
72409;BME280;60402;48.082;11.628;2023-03-21T12:21:05;95282.66;;;13.69;59.13
72409;BME280;60402;48.082;11.628;2023-03-21T12:24:31;95287.00;;;14.19;58.53
72409;BME280;60402;48.082;11.628;2023-03-21T12:27:44;95284.16;;;14.28;58.37
72409;BME280;60402;48.082;11.628;2023-03-21T12:39:35;95270.56;;;14.42;56.96
72409;BME280;60402;48.082;11.628;2023-03-21T12:45:17;95268.69;;;14.48;58.54
72409;BME280;60402;48.082;11.628;2023-03-21T12:48:16;95263.75;;;14.76;57.50
72409;BME280;60402;48.082;11.628;2023-03-21T12:51:07;95264.16;;;15.02;54.70
72409;BME280;60402;48.082;11.628;2023-03-21T12:54:01;95253.72;;;14.99;52.80
72409;BME280;60402;48.082;11.628;2023-03-21T12:57:01;95247.50;;;15.09;52.87
72409;BME280;60402;48.082;11.628;2023-03-21T12:59:54;95246.97;;;15.29;52.22
72409;BME280;60402;48.082;11.628;2023-03-21T13:02:52;95238.44;;;15.29;51.33
72409;BME280;60402;48.082;11.628;2023-03-21T13:05:47;95217.59;;;15.47;51.17
72409;BME280;60402;48.082;11.628;2023-03-21T13:08:38;95216.75;;;15.56;51.52
72409;BME280;60402;48.082;11.628;2023-03-21T13:11:28;95180.59;;;15.47;49.75
72409;BME280;60402;48.082;11.628;2023-03-21T13:14:20;95197.50;;;15.51;49.03
72409;BME280;60402;48.082;11.628;2023-03-21T13:17:21;95215.22;;;15.79;48.12
72409;BME280;60402;48.082;11.628;2023-03-21T13:21:03;95198.81;;;15.74;49.41
72409;BME280;60402;48.082;11.628;2023-03-21T13:23:54;95212.41;;;15.94;50.58
72409;BME280;60402;48.082;11.628;2023-03-21T13:33:04;95200.81;;;16.21;49.29
72409;BME280;60402;48.082;11.628;2023-03-21T13:36:04;95177.72;;;16.34;48.20
72409;BME280;60402;48.082;11.628;2023-03-21T13:38:53;95197.28;;;16.26;46.19
72409;BME280;60402;48.082;11.628;2023-03-21T13:41:45;95184.88;;;16.15;46.04
72409;BME280;60402;48.082;11.628;2023-03-21T13:44:43;95176.69;;;16.07;46.31
72409;BME280;60402;48.082;11.628;2023-03-21T13:47:38;95179.69;;;16.28;45.71
72409;BME280;60402;48.082;11.628;2023-03-21T13:50:26;95194.75;;;16.43;46.51
72409;BME280;60402;48.082;11.628;2023-03-21T13:56:01;95178.19;;;16.32;46.22
72409;BME280;60402;48.082;11.628;2023-03-21T13:58:53;95173.00;;;16.46;45.66
72409;BME280;60402;48.082;11.628;2023-03-21T14:02:15;95180.50;;;16.43;45.22
72409;BME280;60402;48.082;11.628;2023-03-21T14:05:13;95155.38;;;16.18;46.41
72409;BME280;60402;48.082;11.628;2023-03-21T14:08:04;95183.34;;;16.43;46.51
72409;BME280;60402;48.082;11.628;2023-03-21T14:10:54;95158.81;;;16.36;46.17
72409;BME280;60402;48.082;11.628;2023-03-21T14:13:43;95187.84;;;16.50;46.38
72409;BME280;60402;48.082;11.628;2023-03-21T14:16:29;95180.69;;;16.54;45.57
72409;BME280;60402;48.082;11.628;2023-03-21T14:19:15;95160.13;;;16.50;45.46
72409;BME280;60402;48.082;11.628;2023-03-21T14:22:01;95158.25;;;16.47;44.98
72409;BME280;60402;48.082;11.628;2023-03-21T14:25:01;95177.53;;;16.38;44.82
72409;BME280;60402;48.082;11.628;2023-03-21T14:27:53;95178.31;;;16.38;44.82
72409;BME280;60402;48.082;11.628;2023-03-21T14:30:41;95174.97;;;16.40;45.43
72409;BME280;60402;48.082;11.628;2023-03-21T14:33:31;95163.06;;;16.26;45.24
72409;BME280;60402;48.082;11.628;2023-03-21T14:36:23;95162.59;;;16.43;46.26
72409;BME280;60402;48.082;11.628;2023-03-21T14:43:41;95075.72;;;15.70;45.66
72409;BME280;60402;48.082;11.628;2023-03-21T14:53:59;95065.53;;;15.93;47.06
72409;BME280;60402;48.082;11.628;2023-03-21T14:56:54;95098.34;;;15.88;47.50
72409;BME280;60402;48.082;11.628;2023-03-21T15:31:17;95162.16;;;15.33;50.48
72409;BME280;60402;48.082;11.628;2023-03-21T16:09:04;95072.78;;;14.17;50.75
72409;BME280;60402;48.082;11.628;2023-03-21T16:12:07;95044.88;;;13.97;50.95
72409;BME280;60402;48.082;11.628;2023-03-21T16:15:14;95118.50;;;14.37;51.53
72409;BME280;60402;48.082;11.628;2023-03-21T16:21:09;95124.22;;;14.19;52.71
72409;BME280;60402;48.082;11.628;2023-03-21T16:24:00;95046.69;;;13.67;53.01
72409;BME280;60402;48.082;11.628;2023-03-21T16:26:50;95088.94;;;13.83;53.70
72409;BME280;60402;48.082;11.628;2023-03-21T16:29:41;95072.88;;;13.71;54.07
72409;BME280;60402;48.082;11.628;2023-03-21T16:32:29;95171.09;;;14.32;54.35
72409;BME280;60402;48.082;11.628;2023-03-21T16:35:30;95133.41;;;13.95;54.82
72409;BME280;60402;48.082;11.628;2023-03-21T16:38:41;95153.44;;;14.01;55.59
72409;BME280;60402;48.082;11.628;2023-03-21T16:41:46;95133.13;;;13.66;56.05
72409;BME280;60402;48.082;11.628;2023-03-21T16:44:32;95147.00;;;13.73;56.67
72409;BME280;60402;48.082;11.628;2023-03-21T16:47:25;95155.69;;;13.78;56.81
72409;BME280;60402;48.082;11.628;2023-03-21T16:50:41;95176.03;;;13.86;57.03
72409;BME280;60402;48.082;11.628;2023-03-21T16:53:27;95179.34;;;13.75;57.52
72409;BME280;60402;48.082;11.628;2023-03-21T16:56:25;95178.41;;;13.78;57.60
72409;BME280;60402;48.082;11.628;2023-03-21T16:59:13;95157.72;;;13.60;58.28
72409;BME280;60402;48.082;11.628;2023-03-21T17:02:07;95172.09;;;13.65;58.29
72409;BME280;60402;48.082;11.628;2023-03-21T17:04:56;95175.22;;;13.58;58.68
72409;BME280;60402;48.082;11.628;2023-03-21T17:07:42;95144.16;;;13.36;59.21
72409;BME280;60402;48.082;11.628;2023-03-21T17:10:30;95162.28;;;13.39;59.47
72409;BME280;60402;48.082;11.628;2023-03-21T17:13:18;95100.72;;;12.90;59.69